sensor_id;sensor_type;location;lat;lon;timestamp;P1;durP1;ratioP1;P2;durP2;ratioP2
41311;SDS011;27061;41.648;24.568;2022-12-29T00:00:04;7.63;;;4.40;;
41311;SDS011;27061;41.648;24.568;2022-12-29T00:02:38;9.27;;;4.82;;
41311;SDS011;27061;41.648;24.568;2022-12-29T00:05:05;12.18;;;5.20;;
41311;SDS011;27061;41.648;24.568;2022-12-29T00:07:33;7.28;;;4.55;;
41311;SDS011;27061;41.648;24.568;2022-12-29T00:10:00;5.57;;;4.10;;
41311;SDS011;27061;41.648;24.568;2022-12-29T00:12:27;4.75;;;3.45;;
41311;SDS011;27061;41.648;24.568;2022-12-29T00:15:17;4.88;;;3.70;;
41311;SDS011;27061;41.648;24.568;2022-12-29T00:18:03;14.05;;;5.05;;
41311;SDS011;27061;41.648;24.568;2022-12-29T00:20:32;14.10;;;5.18;;
41311;SDS011;27061;41.648;24.568;2022-12-29T00:23:19;8.88;;;5.32;;
41311;SDS011;27061;41.648;24.568;2022-12-29T00:26:13;8.30;;;4.22;;
41311;SDS011;27061;41.648;24.568;2022-12-29T00:29:00;16.50;;;4.75;;
41311;SDS011;27061;41.648;24.568;2022-12-29T00:31:47;8.07;;;5.03;;
41311;SDS011;27061;41.648;24.568;2022-12-29T00:34:32;53.70;;;7.40;;
41311;SDS011;27061;41.648;24.568;2022-12-29T00:37:18;67.95;;;6.38;;
41311;SDS011;27061;41.648;24.568;2022-12-29T00:40:05;8.13;;;4.20;;
41311;SDS011;27061;41.648;24.568;2022-12-29T00:42:51;27.90;;;5.00;;
41311;SDS011;27061;41.648;24.568;2022-12-29T00:45:39;10.10;;;4.97;;
41311;SDS011;27061;41.648;24.568;2022-12-29T00:48:07;9.25;;;4.05;;
41311;SDS011;27061;41.648;24.568;2022-12-29T00:50:35;4.85;;;4.43;;
41311;SDS011;27061;41.648;24.568;2022-12-29T00:53:02;9.93;;;4.55;;
41311;SDS011;27061;41.648;24.568;2022-12-29T00:55:28;14.10;;;4.70;;
41311;SDS011;27061;41.648;24.568;2022-12-29T00:57:55;4.22;;;3.83;;
41311;SDS011;27061;41.648;24.568;2022-12-29T01:00:22;18.42;;;5.47;;
41311;SDS011;27061;41.648;24.568;2022-12-29T01:02:50;20.23;;;4.70;;
41311;SDS011;27061;41.648;24.568;2022-12-29T01:05:17;7.43;;;4.05;;
41311;SDS011;27061;41.648;24.568;2022-12-29T01:07:44;6.78;;;4.35;;
41311;SDS011;27061;41.648;24.568;2022-12-29T01:10:17;8.07;;;4.55;;
41311;SDS011;27061;41.648;24.568;2022-12-29T01:12:44;5.60;;;4.20;;
41311;SDS011;27061;41.648;24.568;2022-12-29T01:15:13;4.80;;;3.60;;
41311;SDS011;27061;41.648;24.568;2022-12-29T01:17:41;5.60;;;4.13;;
41311;SDS011;27061;41.648;24.568;2022-12-29T01:20:09;9.98;;;4.50;;
41311;SDS011;27061;41.648;24.568;2022-12-29T01:22:37;11.60;;;4.30;;
41311;SDS011;27061;41.648;24.568;2022-12-29T01:25:05;7.65;;;4.88;;
41311;SDS011;27061;41.648;24.568;2022-12-29T01:27:37;18.58;;;5.55;;
41311;SDS011;27061;41.648;24.568;2022-12-29T01:30:04;9.20;;;4.63;;
41311;SDS011;27061;41.648;24.568;2022-12-29T01:32:32;22.38;;;4.95;;
41311;SDS011;27061;41.648;24.568;2022-12-29T01:34:59;6.43;;;4.43;;
41311;SDS011;27061;41.648;24.568;2022-12-29T01:37:26;8.13;;;4.22;;
41311;SDS011;27061;41.648;24.568;2022-12-29T01:39:53;67.07;;;8.65;;
41311;SDS011;27061;41.648;24.568;2022-12-29T01:42:23;9.20;;;4.60;;
41311;SDS011;27061;41.648;24.568;2022-12-29T01:44:54;8.80;;;4.80;;
41311;SDS011;27061;41.648;24.568;2022-12-29T01:50:07;17.63;;;5.32;;
41311;SDS011;27061;41.648;24.568;2022-12-29T01:52:35;13.52;;;5.47;;
41311;SDS011;27061;41.648;24.568;2022-12-29T01:55:08;15.52;;;5.25;;
41311;SDS011;27061;41.648;24.568;2022-12-29T01:57:38;10.93;;;4.78;;
41311;SDS011;27061;41.648;24.568;2022-12-29T02:00:11;29.73;;;5.40;;
41311;SDS011;27061;41.648;24.568;2022-12-29T02:02:47;6.60;;;4.70;;
41311;SDS011;27061;41.648;24.568;2022-12-29T02:07:52;5.82;;;4.20;;
41311;SDS011;27061;41.648;24.568;2022-12-29T02:10:21;6.72;;;4.57;;
41311;SDS011;27061;41.648;24.568;2022-12-29T02:12:49;27.10;;;5.55;;
41311;SDS011;27061;41.648;24.568;2022-12-29T02:15:17;5.82;;;4.68;;
41311;SDS011;27061;41.648;24.568;2022-12-29T02:20:35;8.82;;;6.07;;
41311;SDS011;27061;41.648;24.568;2022-12-29T02:34:31;11.95;;;5.32;;
41311;SDS011;27061;41.648;24.568;2022-12-29T02:37:14;9.40;;;5.28;;
41311;SDS011;27061;41.648;24.568;2022-12-29T02:40:06;9.15;;;6.35;;
41311;SDS011;27061;41.648;24.568;2022-12-29T02:42:48;7.15;;;3.97;;
41311;SDS011;27061;41.648;24.568;2022-12-29T02:50:32;56.42;;;6.35;;
41311;SDS011;27061;41.648;24.568;2022-12-29T02:53:13;26.05;;;6.07;;
41311;SDS011;27061;41.648;24.568;2022-12-29T02:55:47;12.63;;;4.90;;
41311;SDS011;27061;41.648;24.568;2022-12-29T02:58:22;11.57;;;5.32;;
41311;SDS011;27061;41.648;24.568;2022-12-29T03:04:10;9.40;;;5.68;;
41311;SDS011;27061;41.648;24.568;2022-12-29T03:06:52;12.38;;;5.22;;
41311;SDS011;27061;41.648;24.568;2022-12-29T03:09:57;5.25;;;4.75;;
41311;SDS011;27061;41.648;24.568;2022-12-29T03:18:26;14.93;;;5.40;;
41311;SDS011;27061;41.648;24.568;2022-12-29T03:23:44;20.73;;;6.18;;
41311;SDS011;27061;41.648;24.568;2022-12-29T03:26:16;10.50;;;4.90;;
41311;SDS011;27061;41.648;24.568;2022-12-29T03:28:47;16.90;;;6.43;;
41311;SDS011;27061;41.648;24.568;2022-12-29T03:31:22;12.77;;;5.30;;
41311;SDS011;27061;41.648;24.568;2022-12-29T03:33:51;11.70;;;5.45;;
41311;SDS011;27061;41.648;24.568;2022-12-29T03:36:23;6.38;;;4.25;;
41311;SDS011;27061;41.648;24.568;2022-12-29T03:39:02;22.58;;;5.82;;
41311;SDS011;27061;41.648;24.568;2022-12-29T03:41:38;5.95;;;4.93;;
41311;SDS011;27061;41.648;24.568;2022-12-29T03:44:08;5.85;;;4.75;;
41311;SDS011;27061;41.648;24.568;2022-12-29T03:46:36;10.70;;;4.63;;
41311;SDS011;27061;41.648;24.568;2022-12-29T03:49:12;14.02;;;4.90;;
41311;SDS011;27061;41.648;24.568;2022-12-29T03:51:39;6.03;;;4.47;;
41311;SDS011;27061;41.648;24.568;2022-12-29T03:54:06;8.77;;;4.57;;
41311;SDS011;27061;41.648;24.568;2022-12-29T03:56:33;31.02;;;7.25;;
41311;SDS011;27061;41.648;24.568;2022-12-29T03:59:01;53.35;;;7.82;;
41311;SDS011;27061;41.648;24.568;2022-12-29T04:01:33;24.83;;;12.85;;
41311;SDS011;27061;41.648;24.568;2022-12-29T04:04:01;55.10;;;24.25;;
41311;SDS011;27061;41.648;24.568;2022-12-29T04:06:28;38.80;;;19.08;;
41311;SDS011;27061;41.648;24.568;2022-12-29T04:09:07;27.33;;;10.32;;
41311;SDS011;27061;41.648;24.568;2022-12-29T04:11:39;11.48;;;7.28;;
41311;SDS011;27061;41.648;24.568;2022-12-29T04:14:06;17.17;;;7.35;;
41311;SDS011;27061;41.648;24.568;2022-12-29T04:16:34;24.10;;;9.65;;
41311;SDS011;27061;41.648;24.568;2022-12-29T04:19:05;37.80;;;8.82;;
41311;SDS011;27061;41.648;24.568;2022-12-29T04:21:34;23.95;;;7.65;;
41311;SDS011;27061;41.648;24.568;2022-12-29T04:24:02;12.98;;;5.15;;
41311;SDS011;27061;41.648;24.568;2022-12-29T04:29:30;99.07;;;31.70;;
41311;SDS011;27061;41.648;24.568;2022-12-29T04:32:17;118.05;;;36.85;;
41311;SDS011;27061;41.648;24.568;2022-12-29T04:34:48;144.80;;;57.78;;
41311;SDS011;27061;41.648;24.568;2022-12-29T04:37:14;88.72;;;34.38;;
41311;SDS011;27061;41.648;24.568;2022-12-29T04:39:42;47.00;;;16.60;;
41311;SDS011;27061;41.648;24.568;2022-12-29T04:42:08;31.15;;;13.40;;
41311;SDS011;27061;41.648;24.568;2022-12-29T04:44:36;57.08;;;20.05;;
41311;SDS011;27061;41.648;24.568;2022-12-29T04:47:14;66.97;;;32.60;;
41311;SDS011;27061;41.648;24.568;2022-12-29T04:50:10;113.63;;;40.47;;
41311;SDS011;27061;41.648;24.568;2022-12-29T04:52:51;116.07;;;46.33;;
41311;SDS011;27061;41.648;24.568;2022-12-29T04:55:19;141.13;;;52.75;;
41311;SDS011;27061;41.648;24.568;2022-12-29T04:57:46;169.23;;;58.30;;
41311;SDS011;27061;41.648;24.568;2022-12-29T05:00:17;217.90;;;81.95;;
41311;SDS011;27061;41.648;24.568;2022-12-29T05:02:44;217.95;;;75.60;;
41311;SDS011;27061;41.648;24.568;2022-12-29T05:05:13;52.72;;;19.60;;
41311;SDS011;27061;41.648;24.568;2022-12-29T05:07:44;30.45;;;14.85;;
41311;SDS011;27061;41.648;24.568;2022-12-29T05:10:11;23.52;;;13.85;;
41311;SDS011;27061;41.648;24.568;2022-12-29T05:12:38;19.02;;;12.05;;
41311;SDS011;27061;41.648;24.568;2022-12-29T05:15:06;260.75;;;27.25;;
41311;SDS011;27061;41.648;24.568;2022-12-29T05:20:40;46.13;;;17.05;;
41311;SDS011;27061;41.648;24.568;2022-12-29T05:23:07;119.45;;;20.38;;
41311;SDS011;27061;41.648;24.568;2022-12-29T05:25:34;59.88;;;20.88;;
41311;SDS011;27061;41.648;24.568;2022-12-29T05:28:16;93.82;;;26.30;;
41311;SDS011;27061;41.648;24.568;2022-12-29T05:30:48;64.82;;;25.15;;
41311;SDS011;27061;41.648;24.568;2022-12-29T05:33:17;185.77;;;25.38;;
41311;SDS011;27061;41.648;24.568;2022-12-29T05:35:47;56.10;;;27.27;;
41311;SDS011;27061;41.648;24.568;2022-12-29T05:38:14;100.47;;;33.10;;
41311;SDS011;27061;41.648;24.568;2022-12-29T05:40:42;102.50;;;26.40;;
41311;SDS011;27061;41.648;24.568;2022-12-29T05:43:28;77.25;;;23.52;;
41311;SDS011;27061;41.648;24.568;2022-12-29T05:46:18;99.88;;;22.42;;
41311;SDS011;27061;41.648;24.568;2022-12-29T05:48:55;74.38;;;20.70;;
41311;SDS011;27061;41.648;24.568;2022-12-29T05:55:08;31.88;;;10.23;;
41311;SDS011;27061;41.648;24.568;2022-12-29T05:57:40;23.33;;;9.23;;
41311;SDS011;27061;41.648;24.568;2022-12-29T06:00:11;19.60;;;7.60;;
41311;SDS011;27061;41.648;24.568;2022-12-29T06:02:44;63.88;;;9.65;;
41311;SDS011;27061;41.648;24.568;2022-12-29T06:05:13;33.03;;;8.80;;
41311;SDS011;27061;41.648;24.568;2022-12-29T06:07:40;14.07;;;5.28;;
41311;SDS011;27061;41.648;24.568;2022-12-29T06:10:08;20.65;;;7.70;;
41311;SDS011;27061;41.648;24.568;2022-12-29T06:12:42;8.77;;;5.25;;
41311;SDS011;27061;41.648;24.568;2022-12-29T06:15:09;15.45;;;6.13;;
41311;SDS011;27061;41.648;24.568;2022-12-29T06:17:39;6.30;;;4.53;;
41311;SDS011;27061;41.648;24.568;2022-12-29T06:20:07;74.97;;;7.00;;
41311;SDS011;27061;41.648;24.568;2022-12-29T06:22:36;47.83;;;6.75;;
41311;SDS011;27061;41.648;24.568;2022-12-29T06:25:04;15.70;;;4.13;;
41311;SDS011;27061;41.648;24.568;2022-12-29T06:27:33;9.63;;;3.80;;
41311;SDS011;27061;41.648;24.568;2022-12-29T06:30:00;12.07;;;3.97;;
41311;SDS011;27061;41.648;24.568;2022-12-29T06:32:27;16.50;;;3.92;;
41311;SDS011;27061;41.648;24.568;2022-12-29T06:34:59;18.55;;;3.20;;
41311;SDS011;27061;41.648;24.568;2022-12-29T06:37:27;105.35;;;6.45;;
41311;SDS011;27061;41.648;24.568;2022-12-29T06:39:54;106.63;;;6.47;;
41311;SDS011;27061;41.648;24.568;2022-12-29T06:42:24;91.40;;;8.65;;
41311;SDS011;27061;41.648;24.568;2022-12-29T06:45:12;86.90;;;9.15;;
41311;SDS011;27061;41.648;24.568;2022-12-29T06:47:39;57.17;;;6.45;;
41311;SDS011;27061;41.648;24.568;2022-12-29T06:50:06;26.27;;;4.93;;
41311;SDS011;27061;41.648;24.568;2022-12-29T06:52:33;104.38;;;8.15;;
41311;SDS011;27061;41.648;24.568;2022-12-29T06:55:00;72.40;;;6.95;;
41311;SDS011;27061;41.648;24.568;2022-12-29T06:57:27;66.25;;;6.30;;
41311;SDS011;27061;41.648;24.568;2022-12-29T06:59:54;33.20;;;4.00;;
41311;SDS011;27061;41.648;24.568;2022-12-29T07:02:24;2.92;;;2.65;;
41311;SDS011;27061;41.648;24.568;2022-12-29T07:04:52;4.05;;;3.22;;
41311;SDS011;27061;41.648;24.568;2022-12-29T07:07:20;7.95;;;3.60;;
41311;SDS011;27061;41.648;24.568;2022-12-29T07:09:47;25.60;;;4.22;;
41311;SDS011;27061;41.648;24.568;2022-12-29T07:12:14;5.60;;;3.65;;
41311;SDS011;27061;41.648;24.568;2022-12-29T07:14:41;17.05;;;3.92;;
41311;SDS011;27061;41.648;24.568;2022-12-29T07:17:11;13.85;;;4.40;;
41311;SDS011;27061;41.648;24.568;2022-12-29T07:19:48;8.35;;;4.05;;
41311;SDS011;27061;41.648;24.568;2022-12-29T07:22:14;6.85;;;5.03;;
41311;SDS011;27061;41.648;24.568;2022-12-29T07:24:42;22.30;;;6.03;;
41311;SDS011;27061;41.648;24.568;2022-12-29T07:27:09;19.13;;;4.78;;
41311;SDS011;27061;41.648;24.568;2022-12-29T07:29:37;7.80;;;5.05;;
41311;SDS011;27061;41.648;24.568;2022-12-29T07:32:04;6.05;;;4.53;;
41311;SDS011;27061;41.648;24.568;2022-12-29T07:34:32;8.40;;;5.55;;
41311;SDS011;27061;41.648;24.568;2022-12-29T07:36:59;10.75;;;6.07;;
41311;SDS011;27061;41.648;24.568;2022-12-29T07:39:26;18.48;;;6.45;;
41311;SDS011;27061;41.648;24.568;2022-12-29T07:41:53;17.08;;;9.10;;
41311;SDS011;27061;41.648;24.568;2022-12-29T07:44:36;17.35;;;10.27;;
41311;SDS011;27061;41.648;24.568;2022-12-29T07:47:18;17.92;;;11.07;;
41311;SDS011;27061;41.648;24.568;2022-12-29T07:49:45;46.97;;;23.20;;
41311;SDS011;27061;41.648;24.568;2022-12-29T07:52:12;14.13;;;7.40;;
41311;SDS011;27061;41.648;24.568;2022-12-29T07:54:39;6.30;;;4.57;;
41311;SDS011;27061;41.648;24.568;2022-12-29T07:57:06;8.38;;;5.55;;
41311;SDS011;27061;41.648;24.568;2022-12-29T07:59:33;12.10;;;6.65;;
41311;SDS011;27061;41.648;24.568;2022-12-29T08:02:00;14.95;;;6.03;;
41311;SDS011;27061;41.648;24.568;2022-12-29T08:04:27;21.50;;;7.68;;
41311;SDS011;27061;41.648;24.568;2022-12-29T08:06:54;23.40;;;5.90;;
41311;SDS011;27061;41.648;24.568;2022-12-29T08:09:21;15.88;;;5.72;;
41311;SDS011;27061;41.648;24.568;2022-12-29T08:11:49;8.77;;;5.88;;
41311;SDS011;27061;41.648;24.568;2022-12-29T08:14:17;7.25;;;5.10;;
41311;SDS011;27061;41.648;24.568;2022-12-29T08:16:44;15.02;;;5.03;;
41311;SDS011;27061;41.648;24.568;2022-12-29T08:19:12;28.23;;;7.07;;
41311;SDS011;27061;41.648;24.568;2022-12-29T08:21:40;14.52;;;5.28;;
41311;SDS011;27061;41.648;24.568;2022-12-29T08:24:08;23.80;;;6.22;;
41311;SDS011;27061;41.648;24.568;2022-12-29T08:26:35;12.18;;;4.93;;
41311;SDS011;27061;41.648;24.568;2022-12-29T08:29:02;24.52;;;5.45;;
41311;SDS011;27061;41.648;24.568;2022-12-29T08:31:29;18.23;;;5.13;;
41311;SDS011;27061;41.648;24.568;2022-12-29T08:33:56;6.43;;;4.75;;
41311;SDS011;27061;41.648;24.568;2022-12-29T08:36:23;5.72;;;4.68;;
41311;SDS011;27061;41.648;24.568;2022-12-29T08:38:50;5.85;;;4.60;;
41311;SDS011;27061;41.648;24.568;2022-12-29T08:41:17;10.63;;;5.32;;
41311;SDS011;27061;41.648;24.568;2022-12-29T08:43:47;26.90;;;6.63;;
41311;SDS011;27061;41.648;24.568;2022-12-29T08:46:15;6.07;;;5.32;;
41311;SDS011;27061;41.648;24.568;2022-12-29T08:48:43;7.35;;;5.38;;
41311;SDS011;27061;41.648;24.568;2022-12-29T08:51:10;6.00;;;4.30;;
41311;SDS011;27061;41.648;24.568;2022-12-29T08:53:37;5.75;;;4.63;;
41311;SDS011;27061;41.648;24.568;2022-12-29T08:56:05;8.13;;;4.95;;
41311;SDS011;27061;41.648;24.568;2022-12-29T08:58:42;5.07;;;4.32;;
41311;SDS011;27061;41.648;24.568;2022-12-29T09:01:09;40.55;;;5.68;;
41311;SDS011;27061;41.648;24.568;2022-12-29T09:03:37;95.38;;;10.98;;
41311;SDS011;27061;41.648;24.568;2022-12-29T09:06:24;9.02;;;4.78;;
41311;SDS011;27061;41.648;24.568;2022-12-29T09:08:53;19.85;;;4.70;;
41311;SDS011;27061;41.648;24.568;2022-12-29T09:11:22;13.07;;;4.00;;
41311;SDS011;27061;41.648;24.568;2022-12-29T09:13:51;7.32;;;4.88;;
41311;SDS011;27061;41.648;24.568;2022-12-29T09:16:20;42.08;;;5.25;;
41311;SDS011;27061;41.648;24.568;2022-12-29T09:18:49;7.13;;;4.55;;
41311;SDS011;27061;41.648;24.568;2022-12-29T09:21:17;8.30;;;4.70;;
41311;SDS011;27061;41.648;24.568;2022-12-29T09:23:44;5.38;;;4.35;;
41311;SDS011;27061;41.648;24.568;2022-12-29T09:26:11;13.57;;;4.93;;
41311;SDS011;27061;41.648;24.568;2022-12-29T09:28:38;9.07;;;4.53;;
41311;SDS011;27061;41.648;24.568;2022-12-29T09:31:05;4.40;;;4.00;;
41311;SDS011;27061;41.648;24.568;2022-12-29T09:33:32;8.48;;;4.70;;
41311;SDS011;27061;41.648;24.568;2022-12-29T09:36:01;7.50;;;3.83;;
41311;SDS011;27061;41.648;24.568;2022-12-29T09:38:28;3.95;;;3.40;;
41311;SDS011;27061;41.648;24.568;2022-12-29T09:41:15;13.93;;;4.40;;
41311;SDS011;27061;41.648;24.568;2022-12-29T09:44:06;5.13;;;3.90;;
41311;SDS011;27061;41.648;24.568;2022-12-29T09:47:14;4.97;;;4.47;;
41311;SDS011;27061;41.648;24.568;2022-12-29T09:49:45;5.82;;;4.30;;
41311;SDS011;27061;41.648;24.568;2022-12-29T09:52:23;14.80;;;3.63;;
41311;SDS011;27061;41.648;24.568;2022-12-29T09:55:14;14.95;;;4.32;;
41311;SDS011;27061;41.648;24.568;2022-12-29T10:00:36;8.18;;;4.15;;
41311;SDS011;27061;41.648;24.568;2022-12-29T10:03:12;5.90;;;5.05;;
41311;SDS011;27061;41.648;24.568;2022-12-29T10:11:54;10.07;;;4.18;;
41311;SDS011;27061;41.648;24.568;2022-12-29T10:36:52;5.95;;;4.30;;
41311;SDS011;27061;41.648;24.568;2022-12-29T10:39:30;6.13;;;3.97;;
41311;SDS011;27061;41.648;24.568;2022-12-29T10:45:02;9.32;;;4.57;;
41311;SDS011;27061;41.648;24.568;2022-12-29T11:44:56;4.25;;;3.67;;
41311;SDS011;27061;41.648;24.568;2022-12-29T11:47:26;5.32;;;3.67;;
41311;SDS011;27061;41.648;24.568;2022-12-29T11:49:59;3.97;;;3.35;;
41311;SDS011;27061;41.648;24.568;2022-12-29T11:52:31;4.68;;;4.13;;
41311;SDS011;27061;41.648;24.568;2022-12-29T11:55:03;4.05;;;3.65;;
41311;SDS011;27061;41.648;24.568;2022-12-29T11:57:32;6.32;;;4.22;;
41311;SDS011;27061;41.648;24.568;2022-12-29T12:00:02;4.18;;;3.85;;
41311;SDS011;27061;41.648;24.568;2022-12-29T12:02:45;6.65;;;3.25;;
41311;SDS011;27061;41.648;24.568;2022-12-29T12:05:24;3.20;;;2.97;;
41311;SDS011;27061;41.648;24.568;2022-12-29T12:16:56;4.85;;;4.43;;
41311;SDS011;27061;41.648;24.568;2022-12-29T12:19:49;7.15;;;3.65;;
41311;SDS011;27061;41.648;24.568;2022-12-29T12:25:03;4.18;;;3.47;;
41311;SDS011;27061;41.648;24.568;2022-12-29T12:27:43;7.13;;;4.45;;
41311;SDS011;27061;41.648;24.568;2022-12-29T12:30:27;38.85;;;6.38;;
41311;SDS011;27061;41.648;24.568;2022-12-29T12:47:15;3.33;;;3.10;;
41311;SDS011;27061;41.648;24.568;2022-12-29T13:09:00;4.78;;;4.25;;
41311;SDS011;27061;41.648;24.568;2022-12-29T13:25:47;26.73;;;6.00;;
41311;SDS011;27061;41.648;24.568;2022-12-29T13:28:37;22.73;;;7.22;;
41311;SDS011;27061;41.648;24.568;2022-12-29T13:37:10;20.30;;;6.47;;
41311;SDS011;27061;41.648;24.568;2022-12-29T13:39:45;47.28;;;8.38;;
41311;SDS011;27061;41.648;24.568;2022-12-29T13:42:25;19.92;;;7.65;;
41311;SDS011;27061;41.648;24.568;2022-12-29T13:45:02;24.10;;;13.73;;
41311;SDS011;27061;41.648;24.568;2022-12-29T13:50:12;81.47;;;52.10;;
41311;SDS011;27061;41.648;24.568;2022-12-29T13:52:55;11.43;;;8.70;;
41311;SDS011;27061;41.648;24.568;2022-12-29T14:01:33;44.95;;;8.45;;
41311;SDS011;27061;41.648;24.568;2022-12-29T14:04:11;35.13;;;19.15;;
41311;SDS011;27061;41.648;24.568;2022-12-29T14:06:40;54.25;;;33.60;;
41311;SDS011;27061;41.648;24.568;2022-12-29T14:12:01;37.67;;;20.77;;
41311;SDS011;27061;41.648;24.568;2022-12-29T14:14:28;39.53;;;20.23;;
41311;SDS011;27061;41.648;24.568;2022-12-29T14:17:10;37.80;;;21.45;;
41311;SDS011;27061;41.648;24.568;2022-12-29T14:19:41;22.55;;;15.45;;
41311;SDS011;27061;41.648;24.568;2022-12-29T14:22:11;62.30;;;34.83;;
41311;SDS011;27061;41.648;24.568;2022-12-29T14:24:43;49.40;;;30.48;;
41311;SDS011;27061;41.648;24.568;2022-12-29T14:29:43;31.60;;;20.67;;
41311;SDS011;27061;41.648;24.568;2022-12-29T14:34:54;18.98;;;14.77;;
41311;SDS011;27061;41.648;24.568;2022-12-29T14:37:42;38.50;;;16.70;;
41311;SDS011;27061;41.648;24.568;2022-12-29T14:40:21;60.80;;;16.27;;
41311;SDS011;27061;41.648;24.568;2022-12-29T14:42:55;13.93;;;7.90;;
41311;SDS011;27061;41.648;24.568;2022-12-29T14:45:26;20.25;;;6.80;;
41311;SDS011;27061;41.648;24.568;2022-12-29T14:47:55;14.23;;;5.22;;
41311;SDS011;27061;41.648;24.568;2022-12-29T14:50:38;7.68;;;4.47;;
41311;SDS011;27061;41.648;24.568;2022-12-29T14:53:41;78.40;;;37.90;;
41311;SDS011;27061;41.648;24.568;2022-12-29T14:56:08;207.57;;;78.45;;
41311;SDS011;27061;41.648;24.568;2022-12-29T14:58:47;42.72;;;15.57;;
41311;SDS011;27061;41.648;24.568;2022-12-29T15:01:24;36.72;;;11.90;;
41311;SDS011;27061;41.648;24.568;2022-12-29T15:03:57;20.98;;;9.73;;
41311;SDS011;27061;41.648;24.568;2022-12-29T15:06:28;28.52;;;8.27;;
41311;SDS011;27061;41.648;24.568;2022-12-29T15:09:09;33.80;;;8.18;;
41311;SDS011;27061;41.648;24.568;2022-12-29T15:11:48;19.15;;;6.15;;
41311;SDS011;27061;41.648;24.568;2022-12-29T15:14:32;12.77;;;4.57;;
41311;SDS011;27061;41.648;24.568;2022-12-29T15:17:11;5.78;;;5.18;;
41311;SDS011;27061;41.648;24.568;2022-12-29T15:19:53;21.00;;;5.40;;
41311;SDS011;27061;41.648;24.568;2022-12-29T15:22:22;14.60;;;7.15;;
41311;SDS011;27061;41.648;24.568;2022-12-29T15:24:51;14.95;;;9.15;;
41311;SDS011;27061;41.648;24.568;2022-12-29T15:27:20;14.13;;;8.57;;
41311;SDS011;27061;41.648;24.568;2022-12-29T15:29:59;38.28;;;17.50;;
41311;SDS011;27061;41.648;24.568;2022-12-29T15:32:29;11.25;;;6.82;;
41311;SDS011;27061;41.648;24.568;2022-12-29T15:35:24;13.82;;;7.28;;
41311;SDS011;27061;41.648;24.568;2022-12-29T15:37:53;23.48;;;6.90;;
41311;SDS011;27061;41.648;24.568;2022-12-29T15:40:21;18.35;;;7.35;;
41311;SDS011;27061;41.648;24.568;2022-12-29T15:45:57;43.50;;;7.43;;
41311;SDS011;27061;41.648;24.568;2022-12-29T15:48:24;18.58;;;5.70;;
41311;SDS011;27061;41.648;24.568;2022-12-29T15:50:53;17.85;;;6.53;;
41311;SDS011;27061;41.648;24.568;2022-12-29T15:55:59;7.07;;;5.57;;
41311;SDS011;27061;41.648;24.568;2022-12-29T15:58:38;15.02;;;5.30;;
41311;SDS011;27061;41.648;24.568;2022-12-29T16:03:47;34.35;;;7.22;;
41311;SDS011;27061;41.648;24.568;2022-12-29T16:06:28;25.52;;;7.18;;
41311;SDS011;27061;41.648;24.568;2022-12-29T16:11:51;22.85;;;6.22;;
41311;SDS011;27061;41.648;24.568;2022-12-29T16:14:25;47.03;;;7.15;;
41311;SDS011;27061;41.648;24.568;2022-12-29T16:16:58;25.60;;;12.48;;
41311;SDS011;27061;41.648;24.568;2022-12-29T16:19:38;28.20;;;10.55;;
41311;SDS011;27061;41.648;24.568;2022-12-29T16:22:11;16.92;;;8.45;;
41311;SDS011;27061;41.648;24.568;2022-12-29T16:24:42;23.00;;;9.30;;
41311;SDS011;27061;41.648;24.568;2022-12-29T16:27:31;11.07;;;9.35;;
41311;SDS011;27061;41.648;24.568;2022-12-29T16:30:12;25.85;;;13.52;;
41311;SDS011;27061;41.648;24.568;2022-12-29T16:32:48;19.70;;;10.13;;
41311;SDS011;27061;41.648;24.568;2022-12-29T16:37:44;10.27;;;7.25;;
41311;SDS011;27061;41.648;24.568;2022-12-29T16:42:47;51.13;;;8.73;;
41311;SDS011;27061;41.648;24.568;2022-12-29T16:47:48;15.38;;;9.85;;
41311;SDS011;27061;41.648;24.568;2022-12-29T16:50:32;16.63;;;11.98;;
41311;SDS011;27061;41.648;24.568;2022-12-29T16:53:02;22.95;;;5.97;;
41311;SDS011;27061;41.648;24.568;2022-12-29T16:55:30;18.98;;;11.48;;
41311;SDS011;27061;41.648;24.568;2022-12-29T16:57:58;24.35;;;11.13;;
41311;SDS011;27061;41.648;24.568;2022-12-29T17:00:35;28.33;;;14.52;;
41311;SDS011;27061;41.648;24.568;2022-12-29T17:03:03;63.25;;;17.55;;
41311;SDS011;27061;41.648;24.568;2022-12-29T17:05:30;38.15;;;21.88;;
41311;SDS011;27061;41.648;24.568;2022-12-29T17:07:57;75.90;;;31.67;;
41311;SDS011;27061;41.648;24.568;2022-12-29T17:10:28;87.72;;;39.72;;
41311;SDS011;27061;41.648;24.568;2022-12-29T17:13:15;72.65;;;26.70;;
41311;SDS011;27061;41.648;24.568;2022-12-29T17:15:42;82.38;;;34.22;;
41311;SDS011;27061;41.648;24.568;2022-12-29T17:18:09;102.70;;;40.63;;
41311;SDS011;27061;41.648;24.568;2022-12-29T17:20:39;29.92;;;18.00;;
41311;SDS011;27061;41.648;24.568;2022-12-29T17:23:14;61.75;;;18.30;;
41311;SDS011;27061;41.648;24.568;2022-12-29T17:25:49;29.65;;;14.05;;
41311;SDS011;27061;41.648;24.568;2022-12-29T17:30:47;22.17;;;15.25;;
41311;SDS011;27061;41.648;24.568;2022-12-29T17:33:18;67.57;;;29.27;;
41311;SDS011;27061;41.648;24.568;2022-12-29T17:35:46;94.63;;;34.05;;
41311;SDS011;27061;41.648;24.568;2022-12-29T17:38:22;34.72;;;21.00;;
41311;SDS011;27061;41.648;24.568;2022-12-29T17:40:53;25.67;;;15.15;;
41311;SDS011;27061;41.648;24.568;2022-12-29T17:43:20;36.13;;;17.85;;
41311;SDS011;27061;41.648;24.568;2022-12-29T17:45:54;41.78;;;15.73;;
41311;SDS011;27061;41.648;24.568;2022-12-29T17:48:43;17.42;;;10.70;;
41311;SDS011;27061;41.648;24.568;2022-12-29T17:51:19;16.13;;;9.23;;
41311;SDS011;27061;41.648;24.568;2022-12-29T17:53:47;18.70;;;7.43;;
41311;SDS011;27061;41.648;24.568;2022-12-29T17:56:15;15.77;;;10.45;;
41311;SDS011;27061;41.648;24.568;2022-12-29T17:58:42;40.60;;;12.45;;
41311;SDS011;27061;41.648;24.568;2022-12-29T18:01:12;24.20;;;12.45;;
41311;SDS011;27061;41.648;24.568;2022-12-29T18:03:39;35.33;;;17.40;;
41311;SDS011;27061;41.648;24.568;2022-12-29T18:06:07;46.40;;;26.98;;
41311;SDS011;27061;41.648;24.568;2022-12-29T18:08:37;64.88;;;22.17;;
41311;SDS011;27061;41.648;24.568;2022-12-29T18:11:11;95.63;;;17.42;;
41311;SDS011;27061;41.648;24.568;2022-12-29T18:13:47;31.70;;;14.07;;
41311;SDS011;27061;41.648;24.568;2022-12-29T18:16:15;20.00;;;8.32;;
41311;SDS011;27061;41.648;24.568;2022-12-29T18:18:42;27.92;;;8.55;;
41311;SDS011;27061;41.648;24.568;2022-12-29T18:21:16;13.52;;;6.05;;
41311;SDS011;27061;41.648;24.568;2022-12-29T18:23:45;12.85;;;8.82;;
41311;SDS011;27061;41.648;24.568;2022-12-29T18:26:16;15.73;;;10.65;;
41311;SDS011;27061;41.648;24.568;2022-12-29T18:29:04;21.42;;;7.60;;
41311;SDS011;27061;41.648;24.568;2022-12-29T18:31:31;30.20;;;7.75;;
41311;SDS011;27061;41.648;24.568;2022-12-29T18:34:00;32.15;;;17.17;;
41311;SDS011;27061;41.648;24.568;2022-12-29T18:36:33;20.88;;;13.18;;
41311;SDS011;27061;41.648;24.568;2022-12-29T18:39:00;13.63;;;11.02;;
41311;SDS011;27061;41.648;24.568;2022-12-29T18:41:27;46.10;;;20.75;;
41311;SDS011;27061;41.648;24.568;2022-12-29T18:43:56;41.10;;;10.95;;
41311;SDS011;27061;41.648;24.568;2022-12-29T18:46:23;53.65;;;16.05;;
41311;SDS011;27061;41.648;24.568;2022-12-29T18:48:51;27.13;;;9.70;;
41311;SDS011;27061;41.648;24.568;2022-12-29T18:51:20;33.28;;;8.98;;